createdAt,value
2022-08-25T00:01:50.919Z,26.50
2022-08-25T00:04:20.945Z,26.51
2022-08-25T00:06:50.980Z,26.49
2022-08-25T00:09:21.124Z,26.43
2022-08-25T00:11:50.262Z,26.40
2022-08-25T00:14:23.783Z,26.34
2022-08-25T00:16:51.940Z,26.31
2022-08-25T00:19:26.956Z,26.32
2022-08-25T00:21:57.178Z,26.25
2022-08-25T00:24:25.990Z,26.26
2022-08-25T00:26:56.722Z,25.96
2022-08-25T00:29:27.372Z,26.22
2022-08-25T00:31:58.763Z,26.21
2022-08-25T00:34:31.494Z,26.22
2022-08-25T00:36:59.620Z,26.18
2022-08-25T00:39:28.718Z,26.15
2022-08-25T00:41:58.972Z,26.06
2022-08-25T00:44:30.986Z,25.97
2022-08-25T00:47:01.750Z,25.98
2022-08-25T00:49:33.286Z,26.10
2022-08-25T00:52:05.342Z,26.11
2022-08-25T00:54:39.047Z,26.01
2022-08-25T00:57:08.841Z,26.02
2022-08-25T00:59:38.364Z,26.03
2022-08-25T01:02:10.212Z,26.06
2022-08-25T01:04:48.699Z,25.99
2022-08-25T01:07:19.646Z,25.91
2022-08-25T01:09:49.226Z,25.93
2022-08-25T01:12:17.177Z,25.89
2022-08-25T01:14:47.502Z,25.94
2022-08-25T01:17:16.188Z,26.01
2022-08-25T01:19:44.442Z,25.89
2022-08-25T01:22:14.119Z,25.62
2022-08-25T01:24:48.198Z,25.64
2022-08-25T01:27:16.445Z,25.72
2022-08-25T01:29:44.323Z,25.51
2022-08-25T01:32:14.291Z,25.55
2022-08-25T01:34:45.375Z,25.63
2022-08-25T01:37:16.756Z,25.79
2022-08-25T01:39:44.870Z,25.87
2022-08-25T01:42:34.779Z,25.94
2022-08-25T01:45:02.629Z,25.88
2022-08-25T01:47:32.146Z,25.64
2022-08-25T01:50:00.267Z,25.69
2022-08-25T01:52:33.648Z,25.74
2022-08-25T01:55:01.497Z,25.75
2022-08-25T01:57:31.636Z,25.67
2022-08-25T02:00:00.013Z,25.40
2022-08-25T02:02:28.309Z,25.55
2022-08-25T02:04:59.549Z,25.42
2022-08-25T02:07:28.238Z,25.16
2022-08-25T02:09:58.765Z,25.38
2022-08-25T02:12:32.315Z,25.39
2022-08-25T02:15:01.719Z,25.21
2022-08-25T02:17:30.343Z,25.38
2022-08-25T02:19:58.486Z,25.37
2022-08-25T02:22:26.263Z,25.19
2022-08-25T02:24:54.282Z,24.79
2022-08-25T02:27:24.419Z,25.19
2022-08-25T02:29:52.404Z,25.12
2022-08-25T02:32:20.560Z,25.30
2022-08-25T02:34:48.207Z,25.16
2022-08-25T02:37:16.048Z,25.23
2022-08-25T02:39:44.239Z,25.05
2022-08-25T02:42:12.082Z,25.16
2022-08-25T02:44:41.651Z,25.16
2022-08-25T02:47:09.777Z,25.02
2022-08-25T02:49:37.400Z,24.95
2022-08-25T02:52:05.684Z,24.92
2022-08-25T02:54:33.726Z,25.16
2022-08-25T02:57:01.607Z,25.14
2022-08-25T02:59:30.026Z,25.08
2022-08-25T03:01:59.697Z,25.13
2022-08-25T03:04:28.992Z,25.15
2022-08-25T03:06:56.871Z,25.22
2022-08-25T03:09:24.963Z,25.18
2022-08-25T03:11:52.615Z,25.12
2022-08-25T03:14:20.558Z,25.12
2022-08-25T03:16:48.460Z,25.08
2022-08-25T03:19:18.670Z,25.10
2022-08-25T03:21:46.903Z,24.99
2022-08-25T03:24:14.908Z,25.04
2022-08-25T03:26:54.033Z,25.12
2022-08-25T03:29:22.303Z,24.71
2022-08-25T03:31:50.732Z,24.86
2022-08-25T03:34:21.674Z,25.02
2022-08-25T03:36:53.080Z,25.04
2022-08-25T03:39:23.177Z,24.99
2022-08-25T03:41:51.834Z,25.00
2022-08-25T03:44:21.358Z,24.91
2022-08-25T03:46:51.259Z,24.91
2022-08-25T03:49:23.394Z,24.89
2022-08-25T03:51:53.337Z,24.98
2022-08-25T03:54:24.705Z,24.82
2022-08-25T03:56:52.597Z,24.90
2022-08-25T03:59:20.658Z,24.92
2022-08-25T04:01:54.505Z,24.79
2022-08-25T04:04:25.175Z,24.76
2022-08-25T04:06:53.378Z,24.83
2022-08-25T04:09:21.239Z,24.79
2022-08-25T04:11:52.969Z,24.67
2022-08-25T04:14:22.417Z,24.66
2022-08-25T04:16:50.773Z,24.66
2022-08-25T04:19:18.651Z,24.61
2022-08-25T04:21:48.283Z,24.58
2022-08-25T04:24:16.797Z,24.40
2022-08-25T04:26:48.306Z,24.54
2022-08-25T04:29:18.436Z,24.53
2022-08-25T04:31:50.461Z,24.58
2022-08-25T04:34:29.617Z,24.60
2022-08-25T04:37:03.022Z,24.53
2022-08-25T04:39:31.737Z,24.66
2022-08-25T04:42:01.181Z,24.66
2022-08-25T04:44:30.006Z,24.65
2022-08-25T04:46:58.078Z,24.72
2022-08-25T04:49:25.995Z,24.68
2022-08-25T04:51:54.024Z,24.66
2022-08-25T04:54:23.388Z,24.68
2022-08-25T04:56:54.671Z,24.59
2022-08-25T04:59:29.930Z,24.66
2022-08-25T05:02:02.860Z,24.71
2022-08-25T05:04:31.602Z,24.77
2022-08-25T05:06:59.887Z,24.78
2022-08-25T05:09:28.941Z,24.72
2022-08-25T05:12:01.119Z,24.82
2022-08-25T05:14:30.042Z,24.69
2022-08-25T05:16:59.133Z,24.69
2022-08-25T05:19:27.491Z,24.84
2022-08-25T05:21:57.815Z,25.04
2022-08-25T05:24:26.715Z,25.04
2022-08-25T05:26:56.045Z,25.04
2022-08-25T05:29:24.216Z,25.17
2022-08-25T05:31:51.904Z,25.27
2022-08-25T05:34:20.565Z,25.30
2022-08-25T05:36:48.709Z,25.44
2022-08-25T05:39:16.367Z,25.45
2022-08-25T05:41:44.241Z,25.45
2022-08-25T05:44:17.930Z,25.52
2022-08-25T05:46:48.364Z,25.70
2022-08-25T05:49:16.402Z,25.68
2022-08-25T05:51:44.545Z,25.72
2022-08-25T05:54:12.281Z,25.62
2022-08-25T05:56:40.319Z,25.70
2022-08-25T05:59:09.632Z,25.71
2022-08-25T06:01:57.059Z,25.67
2022-08-25T06:04:24.921Z,25.26
2022-08-25T06:06:54.931Z,25.70
2022-08-25T06:09:23.596Z,25.87
2022-08-25T06:11:54.891Z,25.79
2022-08-25T06:14:24.048Z,26.07
2022-08-25T06:16:53.603Z,26.13
2022-08-25T06:19:23.321Z,26.34
2022-08-25T06:21:55.062Z,25.91
2022-08-25T06:24:22.927Z,26.47
2022-08-25T06:26:51.374Z,25.92
2022-08-25T06:29:19.646Z,26.21
2022-08-25T06:31:50.122Z,26.08
2022-08-25T06:34:19.943Z,26.31
2022-08-25T06:36:52.242Z,26.76
2022-08-25T06:39:20.131Z,27.06
2022-08-25T06:41:52.292Z,27.32
2022-08-25T06:44:20.130Z,26.93
2022-08-25T06:46:48.039Z,27.46
2022-08-25T06:49:16.097Z,27.77
2022-08-25T06:51:45.910Z,27.74
2022-08-25T06:54:14.035Z,27.86
2022-08-25T06:56:42.708Z,28.41
2022-08-25T06:59:11.113Z,28.95
2022-08-25T07:01:39.694Z,29.29
2022-08-25T07:04:12.960Z,29.30
2022-08-25T07:06:43.106Z,30.99
2022-08-25T07:09:13.747Z,34.67
2022-08-25T07:11:42.928Z,36.25
2022-08-25T07:14:12.794Z,36.87
2022-08-25T07:16:43.199Z,39.61
2022-08-25T07:19:20.702Z,39.19
2022-08-25T07:21:51.564Z,39.10
2022-08-25T07:24:21.576Z,40.87
2022-08-25T07:26:50.022Z,41.72
2022-08-25T07:29:20.249Z,41.67
2022-08-25T07:32:00.700Z,44.41
2022-08-25T07:34:52.269Z,45.56
2022-08-25T07:37:38.257Z,45.80
2022-08-25T07:40:13.790Z,43.76
2022-08-25T07:42:42.029Z,41.34
2022-08-25T07:45:11.942Z,43.11
2022-08-25T07:47:40.567Z,44.26
2022-08-25T07:50:10.191Z,42.35
2022-08-25T07:52:38.879Z,43.79
2022-08-25T07:55:08.349Z,45.34
2022-08-25T07:57:42.181Z,44.46
2022-08-25T08:00:11.414Z,44.09
2022-08-25T08:02:39.442Z,42.57
2022-08-25T08:05:10.023Z,43.61
2022-08-25T08:07:43.820Z,46.82
2022-08-25T08:13:07.134Z,46.47
2022-08-25T08:15:35.694Z,48.70
2022-08-25T08:18:07.165Z,49.73
2022-08-25T08:20:42.741Z,46.89
2022-08-25T08:23:11.431Z,46.63
2022-08-25T08:25:39.663Z,47.88
2022-08-25T08:28:09.955Z,50.35
2022-08-25T08:30:39.099Z,51.94
2022-08-25T08:33:10.180Z,52.39
2022-08-25T08:35:39.951Z,49.69
2022-08-25T08:38:14.544Z,49.86
2022-08-25T08:41:09.863Z,46.83
2022-08-25T08:43:42.453Z,48.45
2022-08-25T08:46:10.856Z,50.07
2022-08-25T08:48:52.899Z,49.44
2022-08-25T08:51:24.859Z,50.26
2022-08-25T08:53:57.169Z,50.92
2022-08-25T08:56:30.797Z,49.64
2022-08-25T08:59:06.307Z,49.80
2022-08-25T09:01:40.332Z,50.50
2022-08-25T09:04:14.759Z,50.91
2022-08-25T09:06:44.979Z,51.41
2022-08-25T09:09:20.142Z,50.02
2022-08-25T09:11:59.256Z,51.29
2022-08-25T09:14:40.205Z,49.68
2022-08-25T09:17:17.759Z,49.65
2022-08-25T09:20:18.341Z,50.81
2022-08-25T09:23:01.166Z,48.68
2022-08-25T09:25:53.536Z,46.18
2022-08-25T09:28:26.892Z,46.52
2022-08-25T09:31:00.915Z,47.39
2022-08-25T09:33:31.263Z,48.27
2022-08-25T09:36:05.928Z,49.19
2022-08-25T09:38:35.198Z,50.04
2022-08-25T09:41:03.765Z,48.38
2022-08-25T09:43:34.957Z,48.04
2022-08-25T09:46:11.705Z,44.95
2022-08-25T09:48:48.496Z,46.10
2022-08-25T09:51:28.554Z,48.99
2022-08-25T09:54:00.112Z,50.19
2022-08-25T09:56:31.468Z,46.42
2022-08-25T09:59:21.429Z,49.24
2022-08-25T10:02:07.498Z,49.79
2022-08-25T10:04:38.309Z,44.26
2022-08-25T10:07:24.219Z,39.69
2022-08-25T10:09:55.029Z,38.47
2022-08-25T10:12:32.303Z,36.83
2022-08-25T10:15:00.232Z,37.96
2022-08-25T10:17:33.547Z,36.67
2022-08-25T10:20:18.187Z,36.92
2022-08-25T10:22:48.211Z,37.04
2022-08-25T10:25:29.245Z,36.95
2022-08-25T10:28:11.034Z,36.25
2022-08-25T10:30:52.549Z,36.15
2022-08-25T10:33:30.505Z,37.31
2022-08-25T10:36:04.278Z,39.22
2022-08-25T10:38:37.807Z,39.03
2022-08-25T10:41:38.437Z,37.81
2022-08-25T10:44:30.369Z,39.59
2022-08-25T10:47:27.443Z,39.85
2022-08-25T10:50:04.097Z,39.25
2022-08-25T10:52:40.295Z,41.21
2022-08-25T10:55:17.464Z,39.16
2022-08-25T10:57:56.390Z,36.47
2022-08-25T11:00:31.771Z,36.32
2022-08-25T11:03:25.573Z,37.46
2022-08-25T11:06:01.827Z,37.95
2022-08-25T11:08:35.633Z,37.78
2022-08-25T11:11:05.298Z,38.32
2022-08-25T11:13:43.042Z,37.79
2022-08-25T11:16:18.968Z,36.55
2022-08-25T11:18:56.993Z,37.01
2022-08-25T11:21:34.905Z,38.49
2022-08-25T11:24:11.950Z,38.87
2022-08-25T11:26:44.252Z,38.43
2022-08-25T11:29:15.909Z,38.43
2022-08-25T11:31:52.717Z,37.09
2022-08-25T11:34:22.319Z,37.19
2022-08-25T11:36:56.369Z,37.54
2022-08-25T11:39:40.205Z,37.23
2022-08-25T11:42:22.798Z,37.09
2022-08-25T11:45:05.423Z,37.41
2022-08-25T11:47:56.600Z,38.62
2022-08-25T11:50:32.946Z,37.81
2022-08-25T11:53:26.563Z,38.92
2022-08-25T11:55:58.936Z,37.87
2022-08-25T11:58:52.195Z,38.19
2022-08-25T12:02:10.283Z,39.08
2022-08-25T12:04:44.755Z,36.24
2022-08-25T12:07:25.404Z,36.61
2022-08-25T12:10:47.863Z,36.17
2022-08-25T12:13:39.044Z,36.46
2022-08-25T12:16:07.471Z,35.48
2022-08-25T12:18:46.875Z,35.75
2022-08-25T12:21:34.045Z,37.45
2022-08-25T12:24:15.135Z,37.85
2022-08-25T12:26:53.712Z,39.11
2022-08-25T12:29:30.414Z,39.74
2022-08-25T12:32:22.829Z,37.26
2022-08-25T12:35:20.535Z,37.30
2022-08-25T12:37:58.126Z,37.74
2022-08-25T12:40:30.301Z,37.66
2022-08-25T12:43:07.780Z,36.32
2022-08-25T12:45:39.983Z,36.19
2022-08-25T12:48:42.741Z,36.98
2022-08-25T12:51:19.711Z,35.11
2022-08-25T12:53:51.473Z,35.84
2022-08-25T12:56:26.636Z,35.57
2022-08-25T12:59:09.078Z,36.86
2022-08-25T13:01:52.110Z,37.30
2022-08-25T13:04:49.535Z,37.50
2022-08-25T13:07:31.421Z,38.89
2022-08-25T13:10:26.586Z,38.62
2022-08-25T13:13:05.289Z,40.03
2022-08-25T13:15:41.693Z,38.63
2022-08-25T13:18:26.888Z,38.82
2022-08-25T13:21:03.378Z,39.22
2022-08-25T13:23:35.245Z,39.12
2022-08-25T13:26:03.967Z,38.13
2022-08-25T13:28:34.872Z,38.57
2022-08-25T13:31:10.271Z,39.27
2022-08-25T13:33:38.585Z,39.55
2022-08-25T13:36:25.235Z,38.71
2022-08-25T13:38:53.148Z,38.28
2022-08-25T13:41:29.325Z,39.00
2022-08-25T13:44:01.039Z,38.11
2022-08-25T13:46:32.134Z,38.28
2022-08-25T13:49:05.324Z,38.51
2022-08-25T13:51:34.673Z,38.40
2022-08-25T13:54:05.044Z,38.11
2022-08-25T13:56:38.797Z,38.25
2022-08-25T13:59:23.040Z,37.54
2022-08-25T14:01:55.563Z,37.19
2022-08-25T14:04:32.510Z,36.97
2022-08-25T14:07:20.157Z,37.50
2022-08-25T14:09:51.711Z,36.89
2022-08-25T14:12:38.105Z,37.01
2022-08-25T14:15:12.257Z,36.41
2022-08-25T14:17:44.358Z,36.44
2022-08-25T14:20:23.613Z,36.58
2022-08-25T14:22:58.303Z,36.13
2022-08-25T14:25:27.992Z,36.21
2022-08-25T14:28:13.632Z,36.49
2022-08-25T14:30:47.865Z,36.41
2022-08-25T14:33:20.301Z,37.20
2022-08-25T14:35:52.317Z,36.41
2022-08-25T14:38:22.896Z,36.74
2022-08-25T14:40:51.422Z,36.49
2022-08-25T14:43:20.865Z,36.86
2022-08-25T14:45:52.453Z,35.57
2022-08-25T14:48:27.868Z,36.09
2022-08-25T14:50:57.548Z,36.82
2022-08-25T14:53:25.850Z,36.76
2022-08-25T14:55:58.839Z,36.51
2022-08-25T14:58:27.813Z,37.27
2022-08-25T15:01:02.462Z,37.87
2022-08-25T15:03:34.676Z,37.12
2022-08-25T15:06:04.271Z,37.31
2022-08-25T15:08:52.761Z,36.49
2022-08-25T15:11:20.816Z,37.60
2022-08-25T15:13:49.910Z,36.99
2022-08-25T15:16:35.173Z,37.73
2022-08-25T15:19:06.973Z,37.90
2022-08-25T15:21:35.794Z,37.79
2022-08-25T15:24:04.501Z,36.84
2022-08-25T15:26:35.496Z,37.37
2022-08-25T15:29:04.833Z,37.99
2022-08-25T15:31:32.998Z,37.68
2022-08-25T15:34:01.064Z,37.54
2022-08-25T15:36:30.680Z,37.46
2022-08-25T15:38:58.671Z,37.54
2022-08-25T15:41:27.818Z,38.05
2022-08-25T15:43:56.605Z,37.99
2022-08-25T15:46:28.814Z,38.20
2022-08-25T15:48:58.162Z,37.99
2022-08-25T15:51:26.626Z,37.95
2022-08-25T15:53:56.419Z,37.25
2022-08-25T15:56:27.282Z,37.30
2022-08-25T15:58:56.424Z,37.00
2022-08-25T16:01:26.724Z,37.50
2022-08-25T16:03:55.096Z,36.93
2022-08-25T16:06:23.570Z,36.49
2022-08-25T16:08:53.656Z,35.73
2022-08-25T16:11:25.713Z,36.33
2022-08-25T16:13:55.029Z,35.91
2022-08-25T16:16:26.280Z,35.84
2022-08-25T16:18:54.661Z,35.30
2022-08-25T16:21:29.087Z,35.40
2022-08-25T16:24:01.896Z,34.79
2022-08-25T16:26:33.919Z,35.40
2022-08-25T16:29:01.920Z,35.59
2022-08-25T16:31:34.490Z,34.94
2022-08-25T16:34:02.589Z,34.29
2022-08-25T16:36:30.699Z,34.62
2022-08-25T16:39:01.124Z,34.72
2022-08-25T16:41:34.131Z,34.50
2022-08-25T16:44:07.883Z,34.65
2022-08-25T16:46:40.766Z,34.61
2022-08-25T16:49:10.563Z,34.74
2022-08-25T16:51:39.840Z,34.49
2022-08-25T16:54:26.443Z,34.19
2022-08-25T16:56:55.588Z,34.27
2022-08-25T16:59:25.827Z,33.73
2022-08-25T17:01:54.456Z,34.06
2022-08-25T17:04:29.574Z,34.03
2022-08-25T17:07:00.324Z,34.10
2022-08-25T17:09:30.307Z,34.43
2022-08-25T17:11:58.743Z,34.09
2022-08-25T17:14:28.898Z,34.13
2022-08-25T17:16:56.812Z,34.25
2022-08-25T17:19:26.476Z,34.11
2022-08-25T17:21:55.194Z,33.96
2022-08-25T17:24:29.379Z,33.90
2022-08-25T17:27:00.024Z,34.03
2022-08-25T17:29:31.130Z,34.21
2022-08-25T17:31:59.249Z,33.95
2022-08-25T17:34:27.847Z,33.51
2022-08-25T17:36:56.610Z,33.23
2022-08-25T17:39:26.005Z,33.70
2022-08-25T17:41:54.838Z,33.63
2022-08-25T17:44:22.726Z,33.31
2022-08-25T17:46:52.077Z,33.35
2022-08-25T17:49:20.343Z,33.23
2022-08-25T17:51:48.174Z,33.46
2022-08-25T17:54:17.685Z,32.96
2022-08-25T17:56:45.933Z,32.74
2022-08-25T17:59:13.850Z,32.68
2022-08-25T18:01:42.208Z,32.95
2022-08-25T18:04:17.976Z,32.72
2022-08-25T18:06:48.413Z,32.68
2022-08-25T18:09:17.534Z,32.62
2022-08-25T18:11:46.130Z,32.47
2022-08-25T18:14:17.525Z,32.45
2022-08-25T18:16:45.814Z,32.63
2022-08-25T18:19:16.699Z,32.45
2022-08-25T18:21:44.655Z,32.51
2022-08-25T18:24:13.456Z,32.44
2022-08-25T18:26:41.875Z,32.28
2022-08-25T18:29:13.214Z,32.03
2022-08-25T18:31:42.145Z,31.74
2022-08-25T18:34:11.425Z,31.60
2022-08-25T18:36:40.834Z,31.62
2022-08-25T18:39:28.038Z,31.71
2022-08-25T18:42:01.121Z,31.49
2022-08-25T18:44:29.354Z,31.42
2022-08-25T18:46:58.079Z,31.45
2022-08-25T18:49:26.842Z,31.07
2022-08-25T18:51:58.040Z,31.08
2022-08-25T18:54:25.882Z,31.07
2022-08-25T18:56:54.663Z,31.15
2022-08-25T18:59:23.387Z,31.12
2022-08-25T19:01:52.419Z,31.02
2022-08-25T19:04:20.730Z,31.19
2022-08-25T19:06:57.688Z,31.06
2022-08-25T19:09:25.729Z,31.18
2022-08-25T19:11:54.674Z,31.27
2022-08-25T19:14:23.209Z,30.91
2022-08-25T19:16:55.021Z,30.93
2022-08-25T19:19:23.980Z,30.96
2022-08-25T19:21:52.098Z,30.86
2022-08-25T19:24:21.610Z,31.06
2022-08-25T19:26:54.335Z,31.06
2022-08-25T19:29:23.314Z,30.97
2022-08-25T19:31:53.161Z,30.86
2022-08-25T19:34:28.385Z,30.76
2022-08-25T19:37:00.498Z,30.82
2022-08-25T19:39:30.557Z,30.92
2022-08-25T19:41:58.795Z,30.81
2022-08-25T19:44:28.315Z,30.80
2022-08-25T19:46:57.355Z,30.85
2022-08-25T19:49:28.198Z,30.66
2022-08-25T19:52:00.679Z,30.75
2022-08-25T19:54:32.959Z,30.77
2022-08-25T19:57:01.226Z,30.66
2022-08-25T19:59:40.747Z,30.62
2022-08-25T20:02:13.035Z,30.60
2022-08-25T20:04:49.245Z,30.34
2022-08-25T20:07:18.966Z,30.34
2022-08-25T20:09:49.035Z,30.60
2022-08-25T20:12:17.336Z,30.46
2022-08-25T20:14:46.791Z,30.17
2022-08-25T20:17:24.205Z,30.44
2022-08-25T20:19:54.412Z,30.43
2022-08-25T20:22:26.154Z,30.40
2022-08-25T20:24:58.075Z,30.30
2022-08-25T20:27:29.469Z,30.33
2022-08-25T20:29:57.618Z,30.30
2022-08-25T20:32:25.588Z,30.02
2022-08-25T20:34:55.643Z,30.26
2022-08-25T20:37:24.224Z,30.13
2022-08-25T20:39:52.588Z,30.05
2022-08-25T20:42:22.022Z,30.24
2022-08-25T20:44:49.923Z,29.99
2022-08-25T20:47:20.695Z,30.11
2022-08-25T20:49:48.991Z,29.97
2022-08-25T20:52:19.683Z,29.85
2022-08-25T20:54:49.347Z,29.80
2022-08-25T20:57:17.860Z,29.87
2022-08-25T20:59:47.397Z,29.87
2022-08-25T21:02:16.587Z,29.91
2022-08-25T21:04:50.141Z,29.97
2022-08-25T21:07:18.689Z,29.93
2022-08-25T21:09:47.011Z,29.71
2022-08-25T21:12:15.639Z,29.44
2022-08-25T21:14:44.417Z,29.58
2022-08-25T21:17:15.411Z,29.47
2022-08-25T21:22:17.080Z,29.12
2022-08-25T21:24:45.431Z,29.13
2022-08-25T21:27:13.272Z,29.28
2022-08-25T21:29:44.804Z,29.38
2022-08-25T21:32:24.938Z,29.24
2022-08-25T21:34:54.351Z,29.36
2022-08-25T21:37:22.583Z,29.37
2022-08-25T21:39:50.984Z,29.36
2022-08-25T21:42:19.596Z,29.36
2022-08-25T21:44:47.655Z,29.29
2022-08-25T21:47:15.866Z,28.98
2022-08-25T21:49:51.202Z,28.83
2022-08-25T21:52:20.822Z,28.92
2022-08-25T21:54:48.689Z,28.86
2022-08-25T21:57:19.173Z,28.94
2022-08-25T21:59:51.707Z,29.21
2022-08-25T22:02:22.551Z,29.21
2022-08-25T22:04:53.705Z,29.27
2022-08-25T22:07:24.639Z,29.21
2022-08-25T22:09:52.920Z,29.17
2022-08-25T22:12:21.234Z,29.06
2022-08-25T22:14:49.348Z,29.02
2022-08-25T22:17:17.453Z,28.91
2022-08-25T22:19:54.229Z,28.83
2022-08-25T22:22:25.189Z,28.72
2022-08-25T22:24:53.777Z,28.66
2022-08-25T22:27:23.417Z,28.67
2022-08-25T22:29:52.143Z,28.61
2022-08-25T22:32:21.042Z,28.63
2022-08-25T22:34:49.185Z,28.62
2022-08-25T22:37:18.952Z,28.62
2022-08-25T22:39:47.548Z,28.57
2022-08-25T22:42:16.167Z,28.54
2022-08-25T22:44:44.213Z,28.53
2022-08-25T22:47:12.538Z,28.51
2022-08-25T22:49:40.964Z,28.41
2022-08-25T22:52:12.922Z,28.40
2022-08-25T22:54:42.627Z,28.48
2022-08-25T22:57:11.686Z,28.43
2022-08-25T22:59:40.107Z,28.43
2022-08-25T23:02:08.706Z,28.36
2022-08-25T23:04:41.115Z,28.36
2022-08-25T23:07:12.889Z,28.29
2022-08-25T23:09:42.528Z,28.23
2022-08-25T23:12:12.953Z,28.21
2022-08-25T23:14:44.097Z,28.15
2022-08-25T23:17:12.556Z,28.12
2022-08-25T23:19:40.590Z,28.04
2022-08-25T23:22:10.440Z,27.96
2022-08-25T23:24:42.610Z,28.06
2022-08-25T23:27:14.687Z,27.95
2022-08-25T23:29:47.620Z,27.88
2022-08-25T23:32:17.126Z,27.90
2022-08-25T23:34:47.229Z,27.79
2022-08-25T23:37:18.390Z,27.78
2022-08-25T23:39:49.448Z,27.74
2022-08-25T23:42:19.974Z,27.81
2022-08-25T23:44:48.588Z,27.78
2022-08-25T23:47:16.733Z,27.71
2022-08-25T23:49:44.783Z,27.63
2022-08-25T23:52:12.573Z,27.63
2022-08-25T23:54:40.458Z,27.61
2022-08-25T23:57:08.836Z,27.54
2022-08-25T23:59:38.564Z,27.53
